createdAt,value
2022-12-09T00:00:07.566Z,17.90
2022-12-09T00:02:34.706Z,17.90
2022-12-09T00:05:02.184Z,18.40
2022-12-09T00:07:29.207Z,18.70
2022-12-09T00:09:55.932Z,19.00
2022-12-09T00:12:22.743Z,19.30
2022-12-09T00:14:49.466Z,19.40
2022-12-09T00:17:16.384Z,19.40
2022-12-09T00:19:43.405Z,19.40
2022-12-09T00:22:10.254Z,19.30
2022-12-09T00:24:37.329Z,19.20
2022-12-09T00:27:04.296Z,18.90
2022-12-09T00:29:31.202Z,18.60
2022-12-09T00:31:58.107Z,18.40
2022-12-09T00:34:25.244Z,18.20
2022-12-09T00:36:52.109Z,18.20
2022-12-09T00:39:18.857Z,18.10
2022-12-09T00:41:46.107Z,17.90
2022-12-09T00:44:13.246Z,17.90
2022-12-09T00:46:40.176Z,17.80
2022-12-09T00:49:07.508Z,17.90
2022-12-09T00:51:34.534Z,18.40
2022-12-09T00:54:01.521Z,18.80
2022-12-09T00:56:29.973Z,19.00
2022-12-09T00:58:57.981Z,19.10
2022-12-09T01:01:25.185Z,19.20
2022-12-09T01:03:52.112Z,19.40
2022-12-09T01:06:20.356Z,19.40
2022-12-09T01:08:47.316Z,19.30
2022-12-09T01:11:24.523Z,19.20
2022-12-09T01:13:51.823Z,18.90
2022-12-09T01:16:21.064Z,18.60
2022-12-09T01:18:48.117Z,18.30
2022-12-09T01:21:14.872Z,18.20
2022-12-09T01:23:41.851Z,18.10
2022-12-09T01:26:09.167Z,18.00
2022-12-09T01:28:36.768Z,18.00
2022-12-09T01:31:07.330Z,17.90
2022-12-09T01:33:34.203Z,18.00
2022-12-09T01:36:01.084Z,18.50
2022-12-09T01:38:27.857Z,18.80
2022-12-09T01:40:55.228Z,19.00
2022-12-09T01:43:22.207Z,19.10
2022-12-09T01:45:49.711Z,19.20
2022-12-09T01:48:20.514Z,19.30
2022-12-09T01:51:01.878Z,19.30
2022-12-09T01:53:34.176Z,19.40
2022-12-09T01:56:03.283Z,19.40
2022-12-09T01:58:30.356Z,19.30
2022-12-09T02:00:57.328Z,19.10
2022-12-09T02:03:24.396Z,18.80
2022-12-09T02:05:52.234Z,18.50
2022-12-09T02:08:19.757Z,18.30
2022-12-09T02:10:46.968Z,18.20
2022-12-09T02:13:26.972Z,18.10
2022-12-09T02:15:55.846Z,18.00
2022-12-09T02:18:41.543Z,17.90
2022-12-09T02:21:08.805Z,17.90
2022-12-09T02:23:44.838Z,18.30
2022-12-09T02:26:30.362Z,18.60
2022-12-09T02:29:16.071Z,18.90
2022-12-09T02:31:48.777Z,19.20
2022-12-09T02:34:15.941Z,19.20
2022-12-09T02:37:03.108Z,19.30
2022-12-09T02:39:34.470Z,19.30
2022-12-09T02:42:03.896Z,19.20
2022-12-09T02:44:31.326Z,19.00
2022-12-09T02:46:59.001Z,18.70
2022-12-09T02:49:27.445Z,18.50
2022-12-09T02:51:54.456Z,18.30
2022-12-09T02:54:22.362Z,18.20
2022-12-09T02:56:54.142Z,18.10
2022-12-09T02:59:21.260Z,17.90
2022-12-09T03:02:14.368Z,17.90
2022-12-09T03:04:43.454Z,17.80
2022-12-09T03:07:38.922Z,18.10
2022-12-09T03:10:26.370Z,18.60
2022-12-09T03:13:00.429Z,19.00
2022-12-09T03:15:29.723Z,19.10
2022-12-09T03:17:58.502Z,19.20
2022-12-09T03:20:28.225Z,19.30
2022-12-09T03:22:59.010Z,19.30
2022-12-09T03:25:34.538Z,19.30
2022-12-09T03:28:05.591Z,19.10
2022-12-09T03:30:34.406Z,18.80
2022-12-09T03:33:02.178Z,18.50
2022-12-09T03:35:34.337Z,18.30
2022-12-09T03:38:03.893Z,18.10
2022-12-09T03:40:31.370Z,18.00
2022-12-09T03:43:01.410Z,17.90
2022-12-09T03:45:28.829Z,17.80
2022-12-09T03:47:56.279Z,17.70
2022-12-09T03:50:25.174Z,17.70
2022-12-09T03:52:56.684Z,17.90
2022-12-09T03:55:27.029Z,18.40
2022-12-09T03:57:56.226Z,18.70
2022-12-09T04:00:23.206Z,19.00
2022-12-09T04:02:50.728Z,19.10
2022-12-09T04:05:17.749Z,19.20
2022-12-09T04:07:44.947Z,19.30
2022-12-09T04:10:12.387Z,19.40
2022-12-09T04:12:40.390Z,19.20
2022-12-09T04:15:07.462Z,19.00
2022-12-09T04:17:34.517Z,18.80
2022-12-09T04:20:01.595Z,18.50
2022-12-09T04:22:30.118Z,18.30
2022-12-09T04:24:57.315Z,18.10
2022-12-09T04:27:24.515Z,18.00
2022-12-09T04:29:51.439Z,17.90
2022-12-09T04:32:18.526Z,17.80
2022-12-09T04:34:45.435Z,17.70
2022-12-09T04:37:13.249Z,17.70
2022-12-09T04:39:41.891Z,18.00
2022-12-09T04:42:09.369Z,18.40
2022-12-09T04:44:36.440Z,18.70
2022-12-09T04:47:04.725Z,18.90
2022-12-09T04:49:31.677Z,19.00
2022-12-09T04:51:58.848Z,19.10
2022-12-09T04:54:26.068Z,19.10
2022-12-09T04:56:52.885Z,19.20
2022-12-09T04:59:19.740Z,19.20
2022-12-09T05:01:47.071Z,19.10
2022-12-09T05:04:14.216Z,18.90
2022-12-09T05:06:41.712Z,18.60
2022-12-09T05:09:13.269Z,18.40
2022-12-09T05:11:40.539Z,18.20
2022-12-09T05:14:07.872Z,18.10
2022-12-09T05:16:35.079Z,18.00
2022-12-09T05:19:02.360Z,17.90
2022-12-09T05:21:30.075Z,17.80
2022-12-09T05:23:57.033Z,18.00
2022-12-09T05:26:24.448Z,18.40
2022-12-09T05:28:51.629Z,18.80
2022-12-09T05:31:20.237Z,19.10
2022-12-09T05:33:48.683Z,19.20
2022-12-09T05:36:17.723Z,19.40
2022-12-09T05:38:45.106Z,19.20
2022-12-09T05:41:12.704Z,19.20
2022-12-09T05:43:40.187Z,19.20
2022-12-09T05:46:07.890Z,19.20
2022-12-09T05:48:38.342Z,19.00
2022-12-09T05:51:18.711Z,18.70
2022-12-09T05:53:45.656Z,18.40
2022-12-09T05:56:15.433Z,18.30
2022-12-09T05:58:42.654Z,18.10
2022-12-09T06:01:10.119Z,18.00
2022-12-09T06:03:37.798Z,18.00
2022-12-09T06:06:06.179Z,17.90
2022-12-09T06:08:33.306Z,18.10
2022-12-09T06:11:00.556Z,18.50
2022-12-09T06:13:27.543Z,18.90
2022-12-09T06:15:54.736Z,19.10
2022-12-09T06:18:22.209Z,19.20
2022-12-09T06:20:49.111Z,19.30
2022-12-09T06:23:16.038Z,19.30
2022-12-09T06:25:43.608Z,19.40
2022-12-09T06:28:10.577Z,19.30
2022-12-09T06:30:37.759Z,19.10
2022-12-09T06:33:17.478Z,18.90
2022-12-09T06:35:52.133Z,18.60
2022-12-09T06:38:19.079Z,18.30
2022-12-09T06:40:45.947Z,18.20
2022-12-09T06:43:12.823Z,18.10
2022-12-09T06:45:40.014Z,18.00
2022-12-09T06:48:08.665Z,17.90
2022-12-09T06:50:37.038Z,17.90
2022-12-09T06:53:04.353Z,17.80
2022-12-09T06:55:31.180Z,18.10
2022-12-09T06:57:58.649Z,18.70
2022-12-09T07:00:26.209Z,19.00
2022-12-09T07:02:53.758Z,19.10
2022-12-09T07:05:21.551Z,19.30
2022-12-09T07:07:52.933Z,19.40
2022-12-09T07:10:20.151Z,19.30
2022-12-09T07:12:47.638Z,19.40
2022-12-09T07:15:15.303Z,19.50
2022-12-09T07:17:42.607Z,19.50
2022-12-09T07:20:10.183Z,19.50
2022-12-09T07:22:37.286Z,19.50
2022-12-09T07:25:04.907Z,19.40
2022-12-09T07:27:32.719Z,19.20
2022-12-09T07:29:59.737Z,18.90
2022-12-09T07:32:27.287Z,18.60
2022-12-09T07:34:54.233Z,18.40
2022-12-09T07:37:21.326Z,18.30
2022-12-09T07:39:48.483Z,18.40
2022-12-09T07:42:15.662Z,18.90
2022-12-09T07:44:42.547Z,19.30
2022-12-09T07:47:09.361Z,19.40
2022-12-09T07:49:36.964Z,19.60
2022-12-09T07:52:04.487Z,19.60
2022-12-09T07:54:31.421Z,19.70
2022-12-09T07:56:58.485Z,19.80
2022-12-09T07:59:25.476Z,19.80
2022-12-09T08:01:52.291Z,19.60
2022-12-09T08:04:19.434Z,19.40
2022-12-09T08:06:47.217Z,19.10
2022-12-09T08:09:14.764Z,18.80
2022-12-09T08:11:41.833Z,18.50
2022-12-09T08:14:12.564Z,18.40
2022-12-09T08:16:40.867Z,18.40
2022-12-09T08:19:09.140Z,18.90
2022-12-09T08:21:36.932Z,19.20
2022-12-09T08:24:06.079Z,19.50
2022-12-09T08:26:33.966Z,19.60
2022-12-09T08:29:01.829Z,19.60
2022-12-09T08:31:29.913Z,19.60
2022-12-09T08:33:57.890Z,19.70
2022-12-09T08:36:26.396Z,19.80
2022-12-09T08:38:53.991Z,19.60
2022-12-09T08:41:38.959Z,19.60
2022-12-09T08:44:12.357Z,19.20
2022-12-09T08:46:41.011Z,18.80
2022-12-09T08:49:09.058Z,19.10
2022-12-09T08:51:36.646Z,19.50
2022-12-09T08:54:04.410Z,19.60
2022-12-09T08:56:32.016Z,19.70
2022-12-09T08:58:58.965Z,19.80
2022-12-09T09:01:32.283Z,19.90
2022-12-09T09:04:03.981Z,20.00
2022-12-09T09:06:31.237Z,19.90
2022-12-09T09:08:58.434Z,19.90
2022-12-09T09:11:26.055Z,20.00
2022-12-09T09:13:53.177Z,19.90
2022-12-09T09:16:21.858Z,19.80
2022-12-09T09:18:49.152Z,19.60
2022-12-09T09:21:16.863Z,19.30
2022-12-09T09:23:44.629Z,19.00
2022-12-09T09:26:12.569Z,18.80
2022-12-09T09:28:40.120Z,18.60
2022-12-09T09:31:08.445Z,18.40
2022-12-09T09:33:35.703Z,18.30
2022-12-09T09:36:09.687Z,18.20
2022-12-09T09:38:37.610Z,18.10
2022-12-09T09:41:15.981Z,17.90
2022-12-09T09:43:43.105Z,17.30
2022-12-09T09:46:12.572Z,16.80
2022-12-09T09:48:39.990Z,16.50
2022-12-09T09:51:11.781Z,16.50
2022-12-09T09:53:39.081Z,16.40
2022-12-09T09:56:24.868Z,16.70
2022-12-09T09:58:56.509Z,16.90
2022-12-09T10:01:25.897Z,17.10
2022-12-09T10:04:02.041Z,17.50
2022-12-09T10:06:30.129Z,18.20
2022-12-09T10:09:00.574Z,18.70
2022-12-09T10:11:40.731Z,19.20
2022-12-09T10:14:10.985Z,19.30
2022-12-09T10:16:56.430Z,19.60
2022-12-09T10:19:26.808Z,19.70
2022-12-09T10:21:54.807Z,19.80
2022-12-09T10:24:32.965Z,19.90
2022-12-09T10:27:11.082Z,19.90
2022-12-09T10:29:55.221Z,20.00
2022-12-09T10:32:24.632Z,20.00
2022-12-09T10:34:52.275Z,20.00
2022-12-09T10:37:25.071Z,20.10
2022-12-09T10:40:16.073Z,20.20
2022-12-09T10:43:06.398Z,20.10
2022-12-09T10:46:07.904Z,20.00
2022-12-09T10:48:33.104Z,19.90
2022-12-09T10:51:05.258Z,20.00
2022-12-09T10:53:33.876Z,20.10
2022-12-09T10:56:02.541Z,20.10
2022-12-09T10:58:30.500Z,20.10
2022-12-09T11:01:11.117Z,20.10
2022-12-09T11:03:47.361Z,20.00
2022-12-09T11:06:23.615Z,20.00
2022-12-09T11:08:52.739Z,20.00
2022-12-09T11:11:19.860Z,20.10
2022-12-09T11:13:48.181Z,20.10
2022-12-09T11:16:15.182Z,20.10
2022-12-09T11:18:44.347Z,19.80
2022-12-09T11:21:30.763Z,19.40
2022-12-09T11:24:03.209Z,19.80
2022-12-09T11:26:33.125Z,20.00
2022-12-09T11:29:14.168Z,20.10
2022-12-09T11:31:42.018Z,20.30
2022-12-09T11:34:37.758Z,20.30
2022-12-09T11:37:04.822Z,20.30
2022-12-09T11:39:35.189Z,20.30
2022-12-09T11:42:18.568Z,20.30
2022-12-09T11:44:54.474Z,20.30
2022-12-09T11:47:23.252Z,20.30
2022-12-09T11:50:13.375Z,20.30
2022-12-09T11:52:40.365Z,20.30
2022-12-09T11:55:21.879Z,20.30
2022-12-09T11:57:52.437Z,20.40
2022-12-09T12:00:21.359Z,20.30
2022-12-09T12:03:06.603Z,20.40
2022-12-09T12:05:37.153Z,20.40
2022-12-09T12:08:06.861Z,20.30
2022-12-09T12:10:45.956Z,20.30
2022-12-09T12:13:20.300Z,20.30
2022-12-09T12:15:49.316Z,20.30
2022-12-09T12:18:18.622Z,20.30
2022-12-09T12:20:48.544Z,20.30
2022-12-09T12:23:39.998Z,20.20
2022-12-09T12:26:14.635Z,20.30
2022-12-09T12:29:06.881Z,20.30
2022-12-09T12:31:34.079Z,20.30
2022-12-09T12:37:05.310Z,20.30
2022-12-09T12:39:50.439Z,20.30
2022-12-09T12:43:11.531Z,20.30
2022-12-09T12:46:15.613Z,20.30
2022-12-09T12:48:42.597Z,20.30
2022-12-09T12:51:32.350Z,20.30
2022-12-09T12:54:08.152Z,20.30
2022-12-09T12:56:40.387Z,20.30
2022-12-09T12:59:13.242Z,20.20
2022-12-09T13:01:53.813Z,20.40
2022-12-09T13:04:37.458Z,20.30
2022-12-09T13:07:15.077Z,20.30
2022-12-09T13:09:51.352Z,20.30
2022-12-09T13:12:41.274Z,20.30
2022-12-09T13:15:12.602Z,20.20
2022-12-09T13:17:39.665Z,20.20
2022-12-09T13:20:07.371Z,20.30
2022-12-09T13:22:57.362Z,20.30
2022-12-09T13:25:30.941Z,20.30
2022-12-09T13:28:04.117Z,20.30
2022-12-09T13:30:35.165Z,20.50
2022-12-09T13:33:20.871Z,20.50
2022-12-09T13:36:06.902Z,20.50
2022-12-09T13:38:40.004Z,20.50
2022-12-09T13:41:25.700Z,20.50
2022-12-09T13:43:56.191Z,20.60
2022-12-09T13:46:24.110Z,20.50
2022-12-09T13:48:51.791Z,20.60
2022-12-09T13:51:20.654Z,20.60
2022-12-09T13:53:50.862Z,20.60
2022-12-09T13:56:24.069Z,20.50
2022-12-09T13:58:53.633Z,20.50
2022-12-09T14:01:39.144Z,20.60
2022-12-09T14:04:16.822Z,20.60
2022-12-09T14:06:46.521Z,20.70
2022-12-09T14:09:22.706Z,20.70
2022-12-09T14:11:50.833Z,20.70
2022-12-09T14:14:23.666Z,20.80
2022-12-09T14:16:58.291Z,20.80
2022-12-09T14:19:25.262Z,20.80
2022-12-09T14:22:18.162Z,20.80
2022-12-09T14:24:45.878Z,20.80
2022-12-09T14:27:13.759Z,20.70
2022-12-09T14:29:44.457Z,20.60
2022-12-09T14:32:40.762Z,20.40
2022-12-09T14:35:10.077Z,20.20
2022-12-09T14:37:41.793Z,19.80
2022-12-09T14:40:14.414Z,19.60
2022-12-09T14:42:41.754Z,19.40
2022-12-09T14:45:27.030Z,19.60
2022-12-09T14:47:53.883Z,19.90
2022-12-09T14:50:24.755Z,20.20
2022-12-09T14:52:55.518Z,20.40
2022-12-09T14:55:23.726Z,20.40
2022-12-09T14:57:51.869Z,20.50
2022-12-09T15:00:26.947Z,20.50
2022-12-09T15:03:32.147Z,20.60
2022-12-09T15:06:00.600Z,20.70
2022-12-09T15:08:31.811Z,20.70
2022-12-09T15:10:59.756Z,20.70
2022-12-09T15:13:26.711Z,20.60
2022-12-09T15:15:54.046Z,20.50
2022-12-09T15:18:22.915Z,20.50
2022-12-09T15:20:54.428Z,20.50
2022-12-09T15:23:32.068Z,20.50
2022-12-09T15:26:01.208Z,20.70
2022-12-09T15:28:29.863Z,20.60
2022-12-09T15:31:01.329Z,20.70
2022-12-09T15:33:29.565Z,20.70
2022-12-09T15:35:58.862Z,20.80
2022-12-09T15:38:27.000Z,20.80
2022-12-09T15:41:13.639Z,20.90
2022-12-09T15:43:41.515Z,20.90
2022-12-09T15:46:08.615Z,20.90
2022-12-09T15:48:38.503Z,20.90
2022-12-09T15:51:08.043Z,20.90
2022-12-09T15:53:39.715Z,21.00
2022-12-09T15:56:09.357Z,21.00
2022-12-09T15:58:38.815Z,21.00
2022-12-09T16:01:05.722Z,20.80
2022-12-09T16:03:33.561Z,20.60
2022-12-09T16:06:03.454Z,20.70
2022-12-09T16:08:35.326Z,20.60
2022-12-09T16:11:02.383Z,20.40
2022-12-09T16:13:29.865Z,20.60
2022-12-09T16:15:58.120Z,20.70
2022-12-09T16:18:24.966Z,20.60
2022-12-09T16:21:10.648Z,20.50
2022-12-09T16:23:37.515Z,20.60
2022-12-09T16:26:07.437Z,20.60
2022-12-09T16:28:35.030Z,20.60
2022-12-09T16:31:03.304Z,20.60
2022-12-09T16:33:34.305Z,20.70
2022-12-09T16:36:02.828Z,20.70
2022-12-09T16:38:30.444Z,20.70
2022-12-09T16:40:58.756Z,20.70
2022-12-09T16:43:26.398Z,20.70
2022-12-09T16:45:57.441Z,20.60
2022-12-09T16:48:25.125Z,20.60
2022-12-09T16:50:52.114Z,20.70
2022-12-09T16:53:28.566Z,20.70
2022-12-09T16:55:56.562Z,20.60
2022-12-09T16:58:23.406Z,20.60
2022-12-09T17:00:50.593Z,20.60
2022-12-09T17:03:32.449Z,20.70
2022-12-09T17:05:59.370Z,20.60
2022-12-09T17:08:26.256Z,20.50
2022-12-09T17:10:53.270Z,20.60
2022-12-09T17:13:20.289Z,20.60
2022-12-09T17:15:47.115Z,20.50
2022-12-09T17:18:13.919Z,20.40
2022-12-09T17:20:40.849Z,20.10
2022-12-09T17:23:07.732Z,19.70
2022-12-09T17:25:34.743Z,19.50
2022-12-09T17:28:05.634Z,19.40
2022-12-09T17:30:36.691Z,19.40
2022-12-09T17:33:03.751Z,19.80
2022-12-09T17:35:34.182Z,20.00
2022-12-09T17:38:02.772Z,20.20
2022-12-09T17:40:29.522Z,20.30
2022-12-09T17:42:56.377Z,20.30
2022-12-09T17:45:23.295Z,20.50
2022-12-09T17:47:50.157Z,20.50
2022-12-09T17:50:16.928Z,20.60
2022-12-09T17:52:43.759Z,20.60
2022-12-09T17:55:10.752Z,20.60
2022-12-09T17:57:37.527Z,20.60
2022-12-09T18:00:05.309Z,20.50
2022-12-09T18:02:32.282Z,20.50
2022-12-09T18:04:59.071Z,20.50
2022-12-09T18:07:25.905Z,20.50
2022-12-09T18:09:54.676Z,20.50
2022-12-09T18:12:21.901Z,20.50
2022-12-09T18:14:48.924Z,20.50
2022-12-09T18:17:15.818Z,20.50
2022-12-09T18:19:42.550Z,20.50
2022-12-09T18:22:09.365Z,20.60
2022-12-09T18:24:36.199Z,20.40
2022-12-09T18:27:02.959Z,20.50
2022-12-09T18:29:31.019Z,20.60
2022-12-09T18:31:58.192Z,20.60
2022-12-09T18:34:26.079Z,20.60
2022-12-09T18:36:53.330Z,20.60
2022-12-09T18:39:20.440Z,20.40
2022-12-09T18:41:47.379Z,20.30
2022-12-09T18:44:15.083Z,19.90
2022-12-09T18:46:46.727Z,19.60
2022-12-09T18:49:15.037Z,19.40
2022-12-09T18:51:43.073Z,19.30
2022-12-09T18:54:11.056Z,19.50
2022-12-09T18:56:38.065Z,19.80
2022-12-09T18:59:06.872Z,20.20
2022-12-09T19:01:35.785Z,20.50
2022-12-09T19:04:04.035Z,20.50
2022-12-09T19:06:32.230Z,20.60
2022-12-09T19:09:00.365Z,20.80
2022-12-09T19:11:28.452Z,20.70
2022-12-09T19:13:55.495Z,20.60
2022-12-09T19:16:23.115Z,20.70
2022-12-09T19:18:50.604Z,20.70
2022-12-09T19:21:18.751Z,20.80
2022-12-09T19:23:46.170Z,20.80
2022-12-09T19:26:13.969Z,20.80
2022-12-09T19:28:46.167Z,20.50
2022-12-09T19:31:15.163Z,20.40
2022-12-09T19:33:42.097Z,20.00
2022-12-09T19:36:09.410Z,19.70
2022-12-09T19:38:36.430Z,19.50
2022-12-09T19:41:03.241Z,19.40
2022-12-09T19:43:30.199Z,19.70
2022-12-09T19:46:02.137Z,20.10
2022-12-09T19:48:28.947Z,20.40
2022-12-09T19:50:56.107Z,20.50
2022-12-09T19:53:22.936Z,20.50
2022-12-09T19:55:49.717Z,20.60
2022-12-09T19:58:16.431Z,20.60
2022-12-09T20:00:43.219Z,20.60
2022-12-09T20:03:10.480Z,20.50
2022-12-09T20:05:37.301Z,20.50
2022-12-09T20:08:04.341Z,20.60
2022-12-09T20:10:31.287Z,20.70
2022-12-09T20:12:58.112Z,20.60
2022-12-09T20:15:25.196Z,20.50
2022-12-09T20:17:51.936Z,20.40
2022-12-09T20:20:18.935Z,20.30
2022-12-09T20:22:45.789Z,19.90
2022-12-09T20:25:12.605Z,19.60
2022-12-09T20:27:39.371Z,19.40
2022-12-09T20:30:07.189Z,19.30
2022-12-09T20:32:34.415Z,19.50
2022-12-09T20:35:06.766Z,19.90
2022-12-09T20:37:35.293Z,20.10
2022-12-09T20:40:02.271Z,20.30
2022-12-09T20:42:29.033Z,20.50
2022-12-09T20:44:55.845Z,20.50
2022-12-09T20:47:22.605Z,20.40
2022-12-09T20:49:49.353Z,20.20
2022-12-09T20:52:16.162Z,20.00
2022-12-09T20:54:42.988Z,19.70
2022-12-09T20:57:09.770Z,19.40
2022-12-09T20:59:36.625Z,19.30
2022-12-09T21:02:08.289Z,19.10
2022-12-09T21:04:37.681Z,19.00
2022-12-09T21:07:05.545Z,18.90
2022-12-09T21:09:32.602Z,18.80
2022-12-09T21:11:59.808Z,18.80
2022-12-09T21:14:31.106Z,18.70
2022-12-09T21:16:59.761Z,18.70
2022-12-09T21:19:30.084Z,18.60
2022-12-09T21:21:56.860Z,18.60
2022-12-09T21:24:24.826Z,18.50
2022-12-09T21:26:53.647Z,18.50
2022-12-09T21:29:20.416Z,18.40
2022-12-09T21:31:48.899Z,18.40
2022-12-09T21:34:16.325Z,18.40
2022-12-09T21:36:43.926Z,18.80
2022-12-09T21:39:12.346Z,19.10
2022-12-09T21:41:39.128Z,19.40
2022-12-09T21:44:06.326Z,19.50
2022-12-09T21:46:34.657Z,19.70
2022-12-09T21:49:04.321Z,19.70
2022-12-09T21:51:31.561Z,19.80
2022-12-09T21:53:58.507Z,19.80
2022-12-09T21:56:26.846Z,19.60
2022-12-09T21:58:55.740Z,19.30
2022-12-09T22:01:29.577Z,19.10
2022-12-09T22:03:56.908Z,18.90
2022-12-09T22:06:23.964Z,18.70
2022-12-09T22:08:50.787Z,18.60
2022-12-09T22:11:21.684Z,18.60
2022-12-09T22:13:48.662Z,18.50
2022-12-09T22:16:17.457Z,18.50
2022-12-09T22:18:44.613Z,18.40
2022-12-09T22:21:28.989Z,18.40
2022-12-09T22:23:59.939Z,18.30
2022-12-09T22:26:27.098Z,18.30
2022-12-09T22:28:54.368Z,18.20
2022-12-09T22:31:22.406Z,18.20
2022-12-09T22:33:50.328Z,18.10
2022-12-09T22:36:18.084Z,18.10
2022-12-09T22:38:45.029Z,18.20
2022-12-09T22:41:13.396Z,18.80
2022-12-09T22:43:40.838Z,19.20
2022-12-09T22:46:14.631Z,19.40
2022-12-09T22:48:41.579Z,19.50
2022-12-09T22:51:10.226Z,19.70
2022-12-09T22:53:37.405Z,19.70
2022-12-09T22:56:05.004Z,19.60
2022-12-09T22:58:31.761Z,19.60
2022-12-09T23:00:58.599Z,19.30
2022-12-09T23:03:25.458Z,19.00
2022-12-09T23:05:52.265Z,18.80
2022-12-09T23:08:19.049Z,18.70
2022-12-09T23:10:45.863Z,18.50
2022-12-09T23:13:12.643Z,18.50
2022-12-09T23:15:39.534Z,18.40
2022-12-09T23:18:06.298Z,18.30
2022-12-09T23:20:33.065Z,18.30
2022-12-09T23:22:59.950Z,18.20
2022-12-09T23:25:26.890Z,18.50
2022-12-09T23:27:53.668Z,18.70
2022-12-09T23:30:20.607Z,19.00
2022-12-09T23:32:47.546Z,19.20
2022-12-09T23:35:14.392Z,19.30
2022-12-09T23:37:41.401Z,19.40
2022-12-09T23:40:08.727Z,19.60
2022-12-09T23:42:35.713Z,19.60
2022-12-09T23:45:02.541Z,19.60
2022-12-09T23:47:29.325Z,19.50
2022-12-09T23:49:56.150Z,19.20
2022-12-09T23:52:22.991Z,18.90
2022-12-09T23:54:49.763Z,18.70
2022-12-09T23:57:16.553Z,18.60
2022-12-09T23:59:43.547Z,18.50
